Impacts TAF Board INFO
FOR SITUATIONAL AWARENESS. NOT TO BE USED FOR FLIGHT PLANNING PURPOSES.
IDs:

KORD - Chicago/O'Hare Intl, IL, US

Issued at 0246 UTC 20 Jan 2018
Updated at 0525 UTC 20 Jan 2018
Potential Impact None Slight Moderate High
Time0451Z 20/06Z 20/07Z 20/08Z 20/09Z 20/10Z 20/11Z 20/12Z 20/13Z 20/14Z 20/15Z 20/16Z 20/17Z 20/18Z>>
Type OBS PRVL PRVL PRVL PRVL PRVL PRVL PRVL PRVL PRVL PRVL PRVL PRVL PRVL
VIS 10 >6 >6 >6 >6 >6 >6 >6 >6 >6 >6 >6 >6 >6
CIG 240 250 250 250 250 250 250 250 250 250 250 20 20 20
Cover OVC OVC OVC OVC OVC OVC OVC OVC OVC OVC OVC BKN BKN BKN
FltCat VFR VFR VFR VFR VFR VFR VFR VFR VFR VFR VFR MVFR MVFR MVFR
WX -- -- -- -- -- -- -- -- -- -- -- -- -- --
WDir 220 210 230 230 230 230 230 230 230 230 230 240 240 240
WSpd 15 18 12 12 12 12 12 12 12 12 12 8 8 8
WGst 22 27 -- -- -- -- -- -- -- -- -- -- -- --

Raw TAF
KORD 200246Z 2003/2106 21018G27KT P6SM OVC250 WS020/23055KT
  FM200700 23012KT P6SM OVC250
  FM201600 24008KT P6SM BKN020
  FM201900 23009KT P6SM OVC012
  FM202300 22006KT 5SM BR OVC008
  FM210400 21005KT 2SM BR OVC005


Raw METAR
KORD 200451Z 22015G22KT 10SM OVC240 04/M02 A2976 RMK AO2 SLP084 T00391022
KORD 200351Z 22017G24KT 10SM OVC250 04/M02 A2974 RMK AO2 SLP077 T00441022
KORD 200251Z COR 22017G28KT 10SM OVC250 04/M02 A2972 RMK AO2 PK WND 23030/0157 SLP070 T00441022 55002

METAR Board
Radar Display
Forecast Discussion

FOR SITUATIONAL AWARENESS. NOT TO BE USED FOR FLIGHT PLANNING PURPOSES.